sensor_id;sensor_type;location;lat;lon;timestamp;pressure;altitude;pressure_sealevel;temperature;humidity
55490;BME280;44029;52.956;4.772;2023-03-13T00:01:36;100051.13;;;9.71;100.00
55490;BME280;44029;52.956;4.772;2023-03-13T00:04:01;100055.75;;;9.65;100.00
55490;BME280;44029;52.956;4.772;2023-03-13T00:06:32;100050.38;;;9.80;100.00
55490;BME280;44029;52.956;4.772;2023-03-13T00:08:58;100021.06;;;9.71;100.00
55490;BME280;44029;52.956;4.772;2023-03-13T00:11:27;100018.66;;;9.79;100.00
55490;BME280;44029;52.956;4.772;2023-03-13T00:13:56;100012.63;;;9.82;100.00
55490;BME280;44029;52.956;4.772;2023-03-13T00:16:22;99993.78;;;9.86;100.00
55490;BME280;44029;52.956;4.772;2023-03-13T00:18:50;100003.38;;;9.94;100.00
55490;BME280;44029;52.956;4.772;2023-03-13T00:21:17;99983.38;;;9.88;100.00
55490;BME280;44029;52.956;4.772;2023-03-13T00:23:43;99982.56;;;9.87;100.00
55490;BME280;44029;52.956;4.772;2023-03-13T00:26:11;99971.41;;;10.04;100.00
55490;BME280;44029;52.956;4.772;2023-03-13T00:28:38;99966.50;;;10.01;100.00
55490;BME280;44029;52.956;4.772;2023-03-13T00:31:06;99966.22;;;10.08;100.00
55490;BME280;44029;52.956;4.772;2023-03-13T00:33:32;99967.03;;;9.98;100.00
55490;BME280;44029;52.956;4.772;2023-03-13T00:36:04;99961.88;;;10.17;100.00
55490;BME280;44029;52.956;4.772;2023-03-13T00:38:30;99949.50;;;9.99;100.00
55490;BME280;44029;52.956;4.772;2023-03-13T00:41:28;99937.22;;;10.12;100.00
55490;BME280;44029;52.956;4.772;2023-03-13T00:43:54;99932.88;;;10.11;100.00
55490;BME280;44029;52.956;4.772;2023-03-13T00:46:22;99914.81;;;10.15;100.00
55490;BME280;44029;52.956;4.772;2023-03-13T00:48:49;99911.75;;;10.06;100.00
55490;BME280;44029;52.956;4.772;2023-03-13T00:51:15;99905.25;;;10.23;100.00
55490;BME280;44029;52.956;4.772;2023-03-13T00:53:42;99894.56;;;10.11;100.00
55490;BME280;44029;52.956;4.772;2023-03-13T00:56:09;99885.81;;;10.24;100.00
55490;BME280;44029;52.956;4.772;2023-03-13T00:58:38;99877.06;;;10.22;100.00
55490;BME280;44029;52.956;4.772;2023-03-13T01:01:15;99865.59;;;10.31;100.00
55490;BME280;44029;52.956;4.772;2023-03-13T01:03:43;99857.91;;;10.28;100.00
55490;BME280;44029;52.956;4.772;2023-03-13T01:06:12;99860.13;;;10.36;100.00
55490;BME280;44029;52.956;4.772;2023-03-13T01:08:38;99858.72;;;10.28;100.00
55490;BME280;44029;52.956;4.772;2023-03-13T01:11:10;99841.78;;;10.52;100.00
55490;BME280;44029;52.956;4.772;2023-03-13T01:13:36;99831.94;;;10.35;100.00
55490;BME280;44029;52.956;4.772;2023-03-13T01:16:07;99832.72;;;10.56;100.00
55490;BME280;44029;52.956;4.772;2023-03-13T01:18:33;99822.88;;;10.50;100.00
55490;BME280;44029;52.956;4.772;2023-03-13T01:20:59;99805.38;;;10.46;100.00
55490;BME280;44029;52.956;4.772;2023-03-13T01:23:26;99802.34;;;10.53;100.00
55490;BME280;44029;52.956;4.772;2023-03-13T01:25:53;99793.03;;;10.54;100.00
55490;BME280;44029;52.956;4.772;2023-03-13T01:28:19;99796.03;;;10.47;100.00
55490;BME280;44029;52.956;4.772;2023-03-13T01:30:44;99773.03;;;10.58;100.00
55490;BME280;44029;52.956;4.772;2023-03-13T01:33:10;99775.50;;;10.55;100.00
55490;BME280;44029;52.956;4.772;2023-03-13T01:35:35;99757.72;;;10.52;100.00
55490;BME280;44029;52.956;4.772;2023-03-13T01:38:00;99758.53;;;10.58;100.00
55490;BME280;44029;52.956;4.772;2023-03-13T01:40:26;99757.72;;;10.57;100.00
55490;BME280;44029;52.956;4.772;2023-03-13T01:42:56;99746.75;;;10.57;100.00
55490;BME280;44029;52.956;4.772;2023-03-13T01:51:01;99724.31;;;10.50;100.00
55490;BME280;44029;52.956;4.772;2023-03-13T01:53:30;99735.56;;;10.33;100.00
55490;BME280;44029;52.956;4.772;2023-03-13T01:55:58;99714.22;;;10.35;100.00
55490;BME280;44029;52.956;4.772;2023-03-13T01:58:25;99710.66;;;10.14;100.00
55490;BME280;44029;52.956;4.772;2023-03-13T02:00:52;99703.53;;;10.13;100.00
55490;BME280;44029;52.956;4.772;2023-03-13T02:03:19;99691.47;;;10.19;100.00
55490;BME280;44029;52.956;4.772;2023-03-13T02:05:47;99692.59;;;10.18;100.00
55490;BME280;44029;52.956;4.772;2023-03-13T02:08:18;99689.59;;;10.20;100.00
55490;BME280;44029;52.956;4.772;2023-03-13T02:10:50;99671.78;;;10.28;100.00
55490;BME280;44029;52.956;4.772;2023-03-13T02:13:18;99675.09;;;10.14;100.00
55490;BME280;44029;52.956;4.772;2023-03-13T02:15:45;99651.53;;;10.18;100.00
55490;BME280;44029;52.956;4.772;2023-03-13T02:18:11;99661.69;;;10.02;100.00
55490;BME280;44029;52.956;4.772;2023-03-13T02:20:38;99644.16;;;10.09;100.00
55490;BME280;44029;52.956;4.772;2023-03-13T02:26:11;99626.38;;;10.01;100.00
55490;BME280;44029;52.956;4.772;2023-03-13T02:28:37;99623.38;;;9.97;100.00
55490;BME280;44029;52.956;4.772;2023-03-13T02:31:04;99619.28;;;10.00;100.00
55490;BME280;44029;52.956;4.772;2023-03-13T02:33:33;99599.28;;;10.04;100.00
55490;BME280;44029;52.956;4.772;2023-03-13T02:36:01;99605.03;;;10.03;100.00
55490;BME280;44029;52.956;4.772;2023-03-13T02:38:30;99606.13;;;10.07;100.00
55490;BME280;44029;52.956;4.772;2023-03-13T02:40:58;99588.34;;;10.10;100.00
55490;BME280;44029;52.956;4.772;2023-03-13T02:43:29;99590.53;;;10.13;100.00
55490;BME280;44029;52.956;4.772;2023-03-13T02:48:32;99596.53;;;10.10;100.00
55490;BME280;44029;52.956;4.772;2023-03-13T02:51:00;99598.47;;;10.09;100.00
55490;BME280;44029;52.956;4.772;2023-03-13T02:53:26;99587.81;;;9.97;100.00
55490;BME280;44029;52.956;4.772;2023-03-13T02:55:51;99579.59;;;9.97;100.00
55490;BME280;44029;52.956;4.772;2023-03-13T02:58:17;99589.72;;;10.02;100.00
55490;BME280;44029;52.956;4.772;2023-03-13T03:00:42;99601.22;;;10.09;100.00
55490;BME280;44029;52.956;4.772;2023-03-13T03:03:08;99590.00;;;10.00;100.00
55490;BME280;44029;52.956;4.772;2023-03-13T03:05:34;99584.81;;;9.94;100.00
55490;BME280;44029;52.956;4.772;2023-03-13T03:07:59;99588.94;;;9.91;100.00
55490;BME280;44029;52.956;4.772;2023-03-13T03:10:24;99573.59;;;9.95;100.00
55490;BME280;44029;52.956;4.772;2023-03-13T03:12:50;99579.34;;;9.94;100.00
55490;BME280;44029;52.956;4.772;2023-03-13T03:15:15;99574.16;;;9.92;100.00
55490;BME280;44029;52.956;4.772;2023-03-13T03:17:40;99576.63;;;9.83;100.00
55490;BME280;44029;52.956;4.772;2023-03-13T03:20:06;99562.63;;;10.00;100.00
55490;BME280;44029;52.956;4.772;2023-03-13T03:22:36;99579.59;;;9.97;100.00
55490;BME280;44029;52.956;4.772;2023-03-13T03:25:03;99574.66;;;9.99;100.00
55490;BME280;44029;52.956;4.772;2023-03-13T03:27:28;99576.59;;;9.99;100.00
55490;BME280;44029;52.956;4.772;2023-03-13T03:29:54;99569.50;;;9.98;100.00
55490;BME280;44029;52.956;4.772;2023-03-13T03:32:19;99557.97;;;10.01;100.00
55490;BME280;44029;52.956;4.772;2023-03-13T03:34:45;99560.50;;;9.92;100.00
55490;BME280;44029;52.956;4.772;2023-03-13T03:37:10;99558.25;;;10.04;100.00
55490;BME280;44029;52.956;4.772;2023-03-13T03:39:35;99560.72;;;10.06;100.00
55490;BME280;44029;52.956;4.772;2023-03-13T03:42:01;99545.09;;;10.06;100.00
55490;BME280;44029;52.956;4.772;2023-03-13T03:44:26;99545.63;;;10.09;100.00
55490;BME280;44029;52.956;4.772;2023-03-13T03:46:51;99538.22;;;10.19;100.00
55490;BME280;44029;52.956;4.772;2023-03-13T03:49:17;99518.00;;;10.15;100.00
55490;BME280;44029;52.956;4.772;2023-03-13T03:51:42;99542.34;;;10.12;100.00
55490;BME280;44029;52.956;4.772;2023-03-13T03:54:07;99533.31;;;10.16;100.00
55490;BME280;44029;52.956;4.772;2023-03-13T03:56:33;99533.59;;;10.15;100.00
55490;BME280;44029;52.956;4.772;2023-03-13T03:58:58;99520.72;;;10.20;100.00
55490;BME280;44029;52.956;4.772;2023-03-13T04:01:23;99525.94;;;10.17;100.00
55490;BME280;44029;52.956;4.772;2023-03-13T04:03:49;99508.09;;;10.24;100.00
55490;BME280;44029;52.956;4.772;2023-03-13T04:06:14;99503.19;;;10.21;100.00
55490;BME280;44029;52.956;4.772;2023-03-13T04:08:39;99497.75;;;10.16;100.00
55490;BME280;44029;52.956;4.772;2023-03-13T04:11:05;99504.81;;;10.22;100.00
55490;BME280;44029;52.956;4.772;2023-03-13T04:13:30;99507.84;;;10.16;100.00
55490;BME280;44029;52.956;4.772;2023-03-13T04:15:55;99500.22;;;10.13;100.00
55490;BME280;44029;52.956;4.772;2023-03-13T04:18:21;99489.53;;;10.16;100.00
55490;BME280;44029;52.956;4.772;2023-03-13T04:20:46;99515.78;;;10.17;100.00
55490;BME280;44029;52.956;4.772;2023-03-13T04:23:11;99518.25;;;10.14;100.00
55490;BME280;44029;52.956;4.772;2023-03-13T04:25:37;99508.97;;;10.15;100.00
55490;BME280;44029;52.956;4.772;2023-03-13T04:28:02;99508.44;;;10.13;100.00
55490;BME280;44029;52.956;4.772;2023-03-13T04:30:28;99527.25;;;10.24;100.00
55490;BME280;44029;52.956;4.772;2023-03-13T04:32:53;99515.84;;;10.07;100.00
55490;BME280;44029;52.956;4.772;2023-03-13T04:35:19;99503.78;;;10.03;100.00
55490;BME280;44029;52.956;4.772;2023-03-13T04:37:44;99523.19;;;10.12;100.00
55490;BME280;44029;52.956;4.772;2023-03-13T04:40:10;99514.44;;;10.15;100.00
55490;BME280;44029;52.956;4.772;2023-03-13T04:42:36;99502.16;;;10.07;100.00
55490;BME280;44029;52.956;4.772;2023-03-13T04:45:02;99509.25;;;10.13;100.00
55490;BME280;44029;52.956;4.772;2023-03-13T04:47:27;99512.50;;;10.20;100.00
55490;BME280;44029;52.956;4.772;2023-03-13T04:49:53;99502.09;;;10.17;100.00
55490;BME280;44029;52.956;4.772;2023-03-13T04:52:18;99502.97;;;10.13;100.00
55490;BME280;44029;52.956;4.772;2023-03-13T04:54:43;99495.53;;;10.18;100.00
55490;BME280;44029;52.956;4.772;2023-03-13T04:57:09;99497.69;;;10.21;100.00
55490;BME280;44029;52.956;4.772;2023-03-13T04:59:34;99493.88;;;10.22;100.00
55490;BME280;44029;52.956;4.772;2023-03-13T05:01:59;99482.94;;;10.22;100.00
55490;BME280;44029;52.956;4.772;2023-03-13T05:04:24;99470.94;;;10.13;100.00
55490;BME280;44029;52.956;4.772;2023-03-13T05:06:50;99466.53;;;10.17;100.00
55490;BME280;44029;52.956;4.772;2023-03-13T05:09:15;99469.00;;;10.14;100.00
55490;BME280;44029;52.956;4.772;2023-03-13T05:11:41;99464.13;;;10.05;100.00
55490;BME280;44029;52.956;4.772;2023-03-13T05:14:07;99476.41;;;10.13;100.00
55490;BME280;44029;52.956;4.772;2023-03-13T05:16:35;99463.50;;;10.24;100.00
55490;BME280;44029;52.956;4.772;2023-03-13T05:19:00;99459.94;;;10.23;100.00
55490;BME280;44029;52.956;4.772;2023-03-13T05:21:25;99457.50;;;10.22;100.00
55490;BME280;44029;52.956;4.772;2023-03-13T05:23:51;99438.38;;;10.12;100.00
55490;BME280;44029;52.956;4.772;2023-03-13T05:26:16;99432.84;;;10.22;100.00
55490;BME280;44029;52.956;4.772;2023-03-13T05:28:41;99424.94;;;10.15;100.00
55490;BME280;44029;52.956;4.772;2023-03-13T05:31:07;99414.56;;;10.12;100.00
55490;BME280;44029;52.956;4.772;2023-03-13T05:33:32;99412.59;;;10.18;100.00
55490;BME280;44029;52.956;4.772;2023-03-13T05:35:57;99407.75;;;10.10;100.00
55490;BME280;44029;52.956;4.772;2023-03-13T05:38:23;99401.97;;;10.16;100.00
55490;BME280;44029;52.956;4.772;2023-03-13T05:40:48;99394.84;;;10.15;100.00
55490;BME280;44029;52.956;4.772;2023-03-13T05:43:13;99399.44;;;10.25;100.00
55490;BME280;44029;52.956;4.772;2023-03-13T05:45:38;99392.59;;;10.28;100.00
55490;BME280;44029;52.956;4.772;2023-03-13T05:48:04;99367.19;;;10.17;100.00
55490;BME280;44029;52.956;4.772;2023-03-13T05:50:29;99367.97;;;10.22;100.00
55490;BME280;44029;52.956;4.772;2023-03-13T05:52:55;99374.00;;;10.19;100.00
55490;BME280;44029;52.956;4.772;2023-03-13T05:55:20;99364.72;;;10.20;100.00
55490;BME280;44029;52.956;4.772;2023-03-13T05:57:46;99365.50;;;10.26;100.00
55490;BME280;44029;52.956;4.772;2023-03-13T06:00:13;99362.69;;;10.36;100.00
55490;BME280;44029;52.956;4.772;2023-03-13T06:02:39;99347.75;;;10.23;100.00
55490;BME280;44029;52.956;4.772;2023-03-13T06:05:05;99341.41;;;10.33;100.00
55490;BME280;44029;52.956;4.772;2023-03-13T06:07:30;99349.88;;;10.32;100.00
55490;BME280;44029;52.956;4.772;2023-03-13T06:09:56;99362.47;;;10.33;100.00
55490;BME280;44029;52.956;4.772;2023-03-13T06:12:21;99350.94;;;10.36;100.00
55490;BME280;44029;52.956;4.772;2023-03-13T06:14:46;99339.22;;;10.25;100.00
55490;BME280;44029;52.956;4.772;2023-03-13T06:17:12;99334.28;;;10.32;100.00
55490;BME280;44029;52.956;4.772;2023-03-13T06:19:37;99358.34;;;10.30;100.00
55490;BME280;44029;52.956;4.772;2023-03-13T06:22:02;99343.75;;;10.45;100.00
55490;BME280;44029;52.956;4.772;2023-03-13T06:24:28;99349.25;;;10.40;100.00
55490;BME280;44029;52.956;4.772;2023-03-13T06:26:53;99336.13;;;10.42;100.00
55490;BME280;44029;52.956;4.772;2023-03-13T06:29:19;99336.66;;;10.44;100.00
55490;BME280;44029;52.956;4.772;2023-03-13T06:31:44;99338.88;;;10.42;100.00
55490;BME280;44029;52.956;4.772;2023-03-13T06:34:13;99346.44;;;10.50;100.00
55490;BME280;44029;52.956;4.772;2023-03-13T06:36:38;99334.44;;;10.46;100.00
55490;BME280;44029;52.956;4.772;2023-03-13T06:39:04;99333.31;;;10.47;100.00
55490;BME280;44029;52.956;4.772;2023-03-13T06:41:29;99319.06;;;10.50;100.00
55490;BME280;44029;52.956;4.772;2023-03-13T06:43:55;99338.22;;;10.55;100.00
55490;BME280;44029;52.956;4.772;2023-03-13T06:46:22;99328.44;;;10.73;100.00
55490;BME280;44029;52.956;4.772;2023-03-13T06:48:48;99341.69;;;10.66;100.00
55490;BME280;44029;52.956;4.772;2023-03-13T06:51:15;99336.47;;;10.64;100.00
55490;BME280;44029;52.956;4.772;2023-03-13T06:53:41;99341.19;;;10.59;100.00
55490;BME280;44029;52.956;4.772;2023-03-13T06:56:07;99342.28;;;10.58;100.00
55490;BME280;44029;52.956;4.772;2023-03-13T06:58:33;99339.53;;;10.58;100.00
55490;BME280;44029;52.956;4.772;2023-03-13T07:01:05;99337.53;;;10.69;100.00
55490;BME280;44029;52.956;4.772;2023-03-13T07:03:31;99331.56;;;10.61;100.00
55490;BME280;44029;52.956;4.772;2023-03-13T07:05:57;99330.38;;;10.73;100.00
55490;BME280;44029;52.956;4.772;2023-03-13T07:08:23;99339.94;;;10.75;100.00
55490;BME280;44029;52.956;4.772;2023-03-13T07:10:49;99337.06;;;10.91;100.00
55490;BME280;44029;52.956;4.772;2023-03-13T07:13:16;99328.59;;;10.87;100.00
55490;BME280;44029;52.956;4.772;2023-03-13T07:15:44;99331.13;;;10.78;100.00
55490;BME280;44029;52.956;4.772;2023-03-13T07:18:09;99335.31;;;10.71;100.00
55490;BME280;44029;52.956;4.772;2023-03-13T07:20:35;99318.59;;;10.72;100.00
55490;BME280;44029;52.956;4.772;2023-03-13T07:23:00;99326.25;;;10.75;100.00
55490;BME280;44029;52.956;4.772;2023-03-13T07:25:25;99313.97;;;10.68;100.00
55490;BME280;44029;52.956;4.772;2023-03-13T07:27:51;99322.06;;;10.83;100.00
55490;BME280;44029;52.956;4.772;2023-03-13T07:30:18;99329.31;;;10.69;100.00
55490;BME280;44029;52.956;4.772;2023-03-13T07:32:43;99320.34;;;10.92;100.00
55490;BME280;44029;52.956;4.772;2023-03-13T07:35:08;99308.16;;;10.74;100.00
55490;BME280;44029;52.956;4.772;2023-03-13T07:37:34;99313.09;;;11.01;100.00
55490;BME280;44029;52.956;4.772;2023-03-13T07:39:59;99316.00;;;11.10;100.00
55490;BME280;44029;52.956;4.772;2023-03-13T07:42:24;99317.06;;;10.90;100.00
55490;BME280;44029;52.956;4.772;2023-03-13T07:44:49;99307.13;;;11.43;100.00
55490;BME280;44029;52.956;4.772;2023-03-13T07:47:15;99305.56;;;11.79;100.00
55490;BME280;44029;52.956;4.772;2023-03-13T07:49:40;99297.56;;;12.02;100.00
55490;BME280;44029;52.956;4.772;2023-03-13T07:52:08;99289.34;;;12.82;100.00
55490;BME280;44029;52.956;4.772;2023-03-13T07:54:33;99283.03;;;12.02;100.00
55490;BME280;44029;52.956;4.772;2023-03-13T07:57:00;99273.69;;;12.35;100.00
55490;BME280;44029;52.956;4.772;2023-03-13T07:59:26;99270.28;;;12.57;100.00
55490;BME280;44029;52.956;4.772;2023-03-13T08:01:51;99268.56;;;12.29;100.00
55490;BME280;44029;52.956;4.772;2023-03-13T08:04:16;99252.16;;;12.10;100.00
55490;BME280;44029;52.956;4.772;2023-03-13T08:06:41;99264.63;;;12.02;100.00
55490;BME280;44029;52.956;4.772;2023-03-13T08:09:08;99258.25;;;12.07;100.00
55490;BME280;44029;52.956;4.772;2023-03-13T08:11:34;99274.19;;;12.70;100.00
55490;BME280;44029;52.956;4.772;2023-03-13T08:13:59;99279.75;;;12.18;100.00
55490;BME280;44029;52.956;4.772;2023-03-13T08:16:27;99294.19;;;11.86;100.00
55490;BME280;44029;52.956;4.772;2023-03-13T08:18:55;99292.47;;;11.71;100.00
55490;BME280;44029;52.956;4.772;2023-03-13T08:21:24;99296.13;;;11.86;100.00
55490;BME280;44029;52.956;4.772;2023-03-13T08:23:55;99294.47;;;11.66;100.00
55490;BME280;44029;52.956;4.772;2023-03-13T08:26:24;99264.19;;;11.95;100.00
55490;BME280;44029;52.956;4.772;2023-03-13T08:28:58;99271.50;;;11.80;100.00
55490;BME280;44029;52.956;4.772;2023-03-13T08:31:32;99284.63;;;11.84;100.00
55490;BME280;44029;52.956;4.772;2023-03-13T08:33:58;99280.19;;;11.69;100.00
55490;BME280;44029;52.956;4.772;2023-03-13T08:36:26;99268.41;;;11.68;100.00
55490;BME280;44029;52.956;4.772;2023-03-13T08:38:53;99280.03;;;11.60;100.00
55490;BME280;44029;52.956;4.772;2023-03-13T08:41:24;99264.53;;;11.50;100.00
55490;BME280;44029;52.956;4.772;2023-03-13T08:43:53;99277.06;;;11.56;100.00
55490;BME280;44029;52.956;4.772;2023-03-13T08:46:19;99267.19;;;11.36;100.00
55490;BME280;44029;52.956;4.772;2023-03-13T08:48:47;99274.25;;;11.43;100.00
55490;BME280;44029;52.956;4.772;2023-03-13T08:51:14;99273.44;;;11.61;100.00
55490;BME280;44029;52.956;4.772;2023-03-13T08:53:41;99249.94;;;11.55;100.00
55490;BME280;44029;52.956;4.772;2023-03-13T08:56:09;99255.72;;;11.72;100.00
55490;BME280;44029;52.956;4.772;2023-03-13T08:58:34;99248.22;;;11.78;100.00
55490;BME280;44029;52.956;4.772;2023-03-13T09:01:08;99251.34;;;11.71;100.00
55490;BME280;44029;52.956;4.772;2023-03-13T09:03:34;99238.66;;;11.56;100.00
55490;BME280;44029;52.956;4.772;2023-03-13T09:06:01;99234.06;;;12.09;100.00
55490;BME280;44029;52.956;4.772;2023-03-13T09:08:27;99231.13;;;12.19;100.00
55490;BME280;44029;52.956;4.772;2023-03-13T09:13:23;99219.16;;;12.29;100.00
55490;BME280;44029;52.956;4.772;2023-03-13T09:15:56;99232.94;;;12.56;100.00
55490;BME280;44029;52.956;4.772;2023-03-13T09:18:21;99202.50;;;12.25;100.00
55490;BME280;44029;52.956;4.772;2023-03-13T09:20:47;99199.09;;;12.14;100.00
55490;BME280;44029;52.956;4.772;2023-03-13T09:23:12;99190.00;;;12.33;100.00
55490;BME280;44029;52.956;4.772;2023-03-13T09:25:38;99168.72;;;12.25;100.00
55490;BME280;44029;52.956;4.772;2023-03-13T09:28:03;99180.09;;;12.18;100.00
55490;BME280;44029;52.956;4.772;2023-03-13T09:30:29;99191.41;;;12.30;100.00
55490;BME280;44029;52.956;4.772;2023-03-13T09:32:54;99187.13;;;12.24;100.00
55490;BME280;44029;52.956;4.772;2023-03-13T09:35:19;99171.28;;;12.35;100.00
55490;BME280;44029;52.956;4.772;2023-03-13T09:37:45;99160.31;;;12.35;100.00
55490;BME280;44029;52.956;4.772;2023-03-13T09:40:13;99161.13;;;12.63;100.00
55490;BME280;44029;52.956;4.772;2023-03-13T09:42:46;99160.22;;;12.54;100.00
55490;BME280;44029;52.956;4.772;2023-03-13T09:45:16;99141.28;;;12.66;100.00
55490;BME280;44029;52.956;4.772;2023-03-13T09:47:49;99148.91;;;12.55;100.00
55490;BME280;44029;52.956;4.772;2023-03-13T09:52:41;99147.00;;;12.42;100.00
55490;BME280;44029;52.956;4.772;2023-03-13T09:58:13;99124.72;;;12.44;100.00
55490;BME280;44029;52.956;4.772;2023-03-13T10:00:43;99146.19;;;12.55;100.00
55490;BME280;44029;52.956;4.772;2023-03-13T10:05:38;99122.28;;;12.42;100.00
55490;BME280;44029;52.956;4.772;2023-03-13T10:08:14;99129.47;;;12.66;100.00
55490;BME280;44029;52.956;4.772;2023-03-13T10:13:37;99116.66;;;12.47;100.00
55490;BME280;44029;52.956;4.772;2023-03-13T10:16:07;99107.69;;;12.42;100.00
55490;BME280;44029;52.956;4.772;2023-03-13T10:18:35;99109.34;;;12.43;100.00
55490;BME280;44029;52.956;4.772;2023-03-13T10:21:09;99114.22;;;12.60;100.00
55490;BME280;44029;52.956;4.772;2023-03-13T10:23:45;99132.13;;;12.43;100.00
55490;BME280;44029;52.956;4.772;2023-03-13T10:26:20;99137.50;;;12.76;100.00
55490;BME280;44029;52.956;4.772;2023-03-13T10:28:47;99120.00;;;12.58;100.00
55490;BME280;44029;52.956;4.772;2023-03-13T10:31:25;99121.31;;;12.74;100.00
55490;BME280;44029;52.956;4.772;2023-03-13T10:34:08;99129.16;;;12.81;100.00
55490;BME280;44029;52.956;4.772;2023-03-13T10:36:43;99134.22;;;12.88;100.00
55490;BME280;44029;52.956;4.772;2023-03-13T10:39:15;99125.47;;;12.86;100.00
55490;BME280;44029;52.956;4.772;2023-03-13T10:41:40;99127.13;;;12.87;100.00
55490;BME280;44029;52.956;4.772;2023-03-13T10:44:14;99131.22;;;13.12;100.00
55490;BME280;44029;52.956;4.772;2023-03-13T10:46:42;99113.34;;;13.01;100.00
55490;BME280;44029;52.956;4.772;2023-03-13T10:51:50;99109.69;;;13.42;100.00
55490;BME280;44029;52.956;4.772;2023-03-13T10:56:50;99121.63;;;13.23;100.00
55490;BME280;44029;52.956;4.772;2023-03-13T10:59:20;99116.03;;;13.28;100.00
55490;BME280;44029;52.956;4.772;2023-03-13T11:01:47;99099.63;;;13.23;100.00
55490;BME280;44029;52.956;4.772;2023-03-13T11:04:32;99109.13;;;13.53;100.00
55490;BME280;44029;52.956;4.772;2023-03-13T11:07:13;99108.38;;;13.39;100.00
55490;BME280;44029;52.956;4.772;2023-03-13T11:09:40;99106.56;;;13.34;100.00
55490;BME280;44029;52.956;4.772;2023-03-13T11:12:23;99119.34;;;13.53;100.00
55490;BME280;44029;52.956;4.772;2023-03-13T11:14:55;99121.44;;;13.56;100.00
55490;BME280;44029;52.956;4.772;2023-03-13T11:17:39;99116.13;;;13.60;100.00
55490;BME280;44029;52.956;4.772;2023-03-13T11:20:35;99118.25;;;13.63;100.00
55490;BME280;44029;52.956;4.772;2023-03-13T11:23:21;99112.31;;;13.47;100.00
55490;BME280;44029;52.956;4.772;2023-03-13T11:26:16;99123.31;;;13.69;100.00
55490;BME280;44029;52.956;4.772;2023-03-13T11:29:03;99092.81;;;13.57;100.00
55490;BME280;44029;52.956;4.772;2023-03-13T11:31:38;99123.00;;;13.48;100.00
55490;BME280;44029;52.956;4.772;2023-03-13T11:53:27;99085.31;;;12.76;100.00
55490;BME280;44029;52.956;4.772;2023-03-13T12:01:16;99088.34;;;12.88;100.00
55490;BME280;44029;52.956;4.772;2023-03-13T12:04:03;99086.31;;;12.80;100.00
55490;BME280;44029;52.956;4.772;2023-03-13T12:06:30;99091.69;;;12.85;100.00
55490;BME280;44029;52.956;4.772;2023-03-13T12:09:21;99057.25;;;13.02;100.00
55490;BME280;44029;52.956;4.772;2023-03-13T12:11:57;99061.13;;;13.01;100.00
55490;BME280;44029;52.956;4.772;2023-03-13T12:14:39;99055.09;;;13.12;100.00
55490;BME280;44029;52.956;4.772;2023-03-13T12:20:18;99072.00;;;13.06;100.00
55490;BME280;44029;52.956;4.772;2023-03-13T12:23:17;99057.41;;;12.83;100.00
55490;BME280;44029;52.956;4.772;2023-03-13T12:36:56;99044.78;;;12.82;100.00
55490;BME280;44029;52.956;4.772;2023-03-13T12:39:47;99029.06;;;12.96;100.00
55490;BME280;44029;52.956;4.772;2023-03-13T12:42:41;99022.59;;;12.78;100.00
55490;BME280;44029;52.956;4.772;2023-03-13T12:45:16;99029.09;;;12.82;100.00
55490;BME280;44029;52.956;4.772;2023-03-13T12:50:52;99019.06;;;12.77;100.00
55490;BME280;44029;52.956;4.772;2023-03-13T12:59:27;99020.94;;;12.91;100.00
55490;BME280;44029;52.956;4.772;2023-03-13T13:01:54;99010.63;;;12.74;100.00
55490;BME280;44029;52.956;4.772;2023-03-13T13:04:29;98998.88;;;12.82;100.00
55490;BME280;44029;52.956;4.772;2023-03-13T13:09:34;99001.38;;;12.70;100.00
55490;BME280;44029;52.956;4.772;2023-03-13T13:12:23;98991.09;;;12.75;100.00
55490;BME280;44029;52.956;4.772;2023-03-13T13:20:31;98973.41;;;12.68;100.00
55490;BME280;44029;52.956;4.772;2023-03-13T13:25:46;98986.13;;;12.64;100.00
55490;BME280;44029;52.956;4.772;2023-03-13T13:30:38;98980.03;;;12.53;100.00
55490;BME280;44029;52.956;4.772;2023-03-13T13:38:38;98977.97;;;12.72;100.00
55490;BME280;44029;52.956;4.772;2023-03-13T13:43:41;98998.03;;;12.59;100.00
55490;BME280;44029;52.956;4.772;2023-03-13T13:53:46;98989.31;;;12.43;100.00
55490;BME280;44029;52.956;4.772;2023-03-13T14:01:27;98992.38;;;12.42;100.00
55490;BME280;44029;52.956;4.772;2023-03-13T14:04:00;98985.38;;;12.35;100.00
55490;BME280;44029;52.956;4.772;2023-03-13T14:06:33;99003.88;;;12.44;100.00
55490;BME280;44029;52.956;4.772;2023-03-13T14:09:20;98983.13;;;12.51;100.00
55490;BME280;44029;52.956;4.772;2023-03-13T14:11:47;98997.06;;;12.41;100.00
55490;BME280;44029;52.956;4.772;2023-03-13T14:14:18;98976.13;;;12.31;100.00
55490;BME280;44029;52.956;4.772;2023-03-13T14:16:45;98977.97;;;12.22;100.00
55490;BME280;44029;52.956;4.772;2023-03-13T14:19:28;98977.94;;;12.36;100.00
55490;BME280;44029;52.956;4.772;2023-03-13T14:22:03;98981.94;;;12.16;100.00
55490;BME280;44029;52.956;4.772;2023-03-13T14:24:29;98990.28;;;12.11;100.00
55490;BME280;44029;52.956;4.772;2023-03-13T14:26:54;98995.94;;;12.28;100.00
55490;BME280;44029;52.956;4.772;2023-03-13T14:29:20;98987.50;;;12.25;100.00
55490;BME280;44029;52.956;4.772;2023-03-13T14:31:55;98991.09;;;12.62;100.00
55490;BME280;44029;52.956;4.772;2023-03-13T14:34:21;98990.75;;;12.41;100.00
55490;BME280;44029;52.956;4.772;2023-03-13T14:36:57;98993.69;;;12.44;100.00
55490;BME280;44029;52.956;4.772;2023-03-13T14:42:14;98981.97;;;12.52;100.00
55490;BME280;44029;52.956;4.772;2023-03-13T14:44:40;98975.63;;;12.15;100.00
55490;BME280;44029;52.956;4.772;2023-03-13T14:47:20;98966.56;;;12.29;100.00
55490;BME280;44029;52.956;4.772;2023-03-13T14:49:47;98978.59;;;12.05;100.00
55490;BME280;44029;52.956;4.772;2023-03-13T14:52:19;98992.31;;;12.33;100.00